Time;durP1;ratioP1;P1;durP2;ratioP2;P2;SDS_P1;SDS_P2;PMS_P1;PMS_P2;Temp;Humidity;BMP_temperature;BMP_pressure;BME280_temperature;BME280_humidity;BME280_pressure;Samples;Min_cycle;Max_cycle;Signal;HPM_P1;HPM_P2
2021/05/21 10:45:23;;;;;;;50.05;48.00;;;;;;;;;;5090992;27;20876;-72
2021/05/21 10:47:59;;;;;;;53.97;51.72;;;;;;;;;;5090919;28;20716;-72
2021/05/21 10:50:32;;;;;;;60.63;58.05;;;;;;;;;;5090868;28;20564;-71
2021/05/21 10:53:00;;;;;;;63.60;60.80;;;;;;;;;;5090863;28;20186;-63
2021/05/21 10:55:38;;;;;;;65.25;62.40;;;;;;;;;;5090775;28;20168;-63
2021/05/21 10:58:04;;;;;;;68.75;64.75;;;;;;;;;;5090644;28;20258;-63
2021/05/21 11:00:31;;;;;;;77.35;73.15;;;;;;;;;;5090665;28;20159;-63
2021/05/21 11:02:57;;;;;;;80.65;77.03;;;;;;;;;;5090557;28;20221;-63
2021/05/21 11:05:28;;;;;;;85.20;81.30;;;;;;;;;;5090575;28;20637;-67
2021/05/21 11:07:55;;;;;;;79.43;75.88;;;;;;;;;;5090509;28;20179;-67
2021/05/21 11:10:33;;;;;;;69.82;66.75;;;;;;;;;;5090436;28;20164;-67
2021/05/21 11:13:01;;;;;;;69.80;66.68;;;;;;;;;;5090388;28;20195;-67
2021/05/21 11:15:37;;;;;;;68.05;64.78;;;;;;;;;;5090363;28;20164;-67
2021/05/21 11:18:13;;;;;;;69.80;66.25;;;;;;;;;;5090306;28;20179;-67
2021/05/21 11:20:51;;;;;;;84.30;80.65;;;;;;;;;;5090321;28;20182;-65
2021/05/21 11:23:17;;;;;;;84.68;80.68;;;;;;;;;;5090151;28;20207;-67
2021/05/21 11:26:02;;;;;;;81.30;77.75;;;;;;;;;;5090382;28;20168;-67
2021/05/21 11:28:29;;;;;;;79.88;76.40;;;;;;;;;;5090036;28;20247;-67
2021/05/21 11:30:55;;;;;;;85.22;81.30;;;;;;;;;;5090169;28;20172;-66
2021/05/21 11:33:22;;;;;;;85.32;81.47;;;;;;;;;;5089976;28;20187;-66
2021/05/21 11:35:52;;;;;;;79.80;76.30;;;;;;;;;;5089958;28;20457;-66
2021/05/21 11:38:25;;;;;;;75.63;72.13;;;;;;;;;;5089971;28;20170;-66
2021/05/21 11:40:52;;;;;;;76.50;73.13;;;;;;;;;;5089871;28;20172;-66
2021/05/21 11:43:24;;;;;;;77.00;73.63;;;;;;;;;;5089615;28;20223;-66
2021/05/21 11:45:51;;;;;;;81.05;77.50;;;;;;;;;;5089734;28;20168;-66
2021/05/21 11:48:30;;;;;;;87.50;83.70;;;;;;;;;;5089680;28;20178;-66
2021/05/21 11:50:56;;;;;;;84.65;80.25;;;;;;;;;;5089734;28;20647;-66
2021/05/21 11:53:22;;;;;;;84.88;81.15;;;;;;;;;;5089558;28;20168;-66
2021/05/21 11:55:50;;;;;;;82.97;79.43;;;;;;;;;;5080783;28;20172;-66
2021/05/21 11:58:30;;;;;;;89.75;85.40;;;;;;;;;;5075959;28;20171;-66
2021/05/21 12:01:00;;;;;;;77.35;73.95;;;;;;;;;;5075996;28;20226;-66
2021/05/21 12:03:32;;;;;;;80.65;77.00;;;;;;;;;;5075879;28;20220;-65
2021/05/21 12:05:58;;;;;;;82.82;79.22;;;;;;;;;;5075867;28;20165;-66
2021/05/21 12:08:27;;;;;;;83.13;79.53;;;;;;;;;;5074560;28;20537;-66
2021/05/21 12:10:56;;;;;;;84.18;80.57;;;;;;;;;;5075826;28;20541;-66
2021/05/21 12:13:22;;;;;;;84.07;80.38;;;;;;;;;;5075797;28;20169;-66
2021/05/21 12:15:48;;;;;;;84.80;81.07;;;;;;;;;;5075640;28;20648;-67
2021/05/21 12:18:14;;;;;;;86.90;83.05;;;;;;;;;;5075707;28;20168;-66
2021/05/21 12:20:50;;;;;;;93.13;88.97;;;;;;;;;;5074496;28;20643;-66
2021/05/21 12:23:17;;;;;;;94.10;89.95;;;;;;;;;;5075358;28;20525;-67
2021/05/21 12:25:43;;;;;;;88.82;84.82;;;;;;;;;;5075548;28;20648;-67
2021/05/21 12:28:09;;;;;;;82.20;78.43;;;;;;;;;;5075389;28;20747;-69
2021/05/21 12:30:36;;;;;;;73.65;70.50;;;;;;;;;;5075439;28;20168;-69
2021/05/21 12:33:02;;;;;;;81.68;78.00;;;;;;;;;;5075327;28;20492;-69
2021/05/21 12:35:35;;;;;;;93.25;89.13;;;;;;;;;;5075335;28;20250;-69
2021/05/21 12:38:03;;;;;;;92.13;88.07;;;;;;;;;;5075136;28;20164;-68
2021/05/21 12:40:29;;;;;;;78.82;75.45;;;;;;;;;;5075114;28;20730;-69
2021/05/21 12:42:55;;;;;;;58.78;56.28;;;;;;;;;;5074878;28;20208;-69
2021/05/21 12:45:21;;;;;;;50.63;48.42;;;;;;;;;;5074944;28;20169;-69
2021/05/21 12:47:48;;;;;;;53.95;51.65;;;;;;;;;;5075168;28;20168;-69
2021/05/21 12:50:15;;;;;;;48.97;46.97;;;;;;;;;;5075069;28;20165;-69
2021/05/21 12:52:53;;;;;;;50.90;48.80;;;;;;;;;;5074969;28;20183;-68
2021/05/21 12:55:19;;;;;;;39.95;38.45;;;;;;;;;;5074928;28;20218;-68
2021/05/21 12:57:45;;;;;;;44.97;42.83;;;;;;;;;;5074881;28;20176;-69
2021/05/21 13:00:17;;;;;;;45.78;43.58;;;;;;;;;;5074803;28;20172;-70
2021/05/21 13:02:49;;;;;;;48.95;46.95;;;;;;;;;;5074770;28;20255;-70
2021/05/21 13:05:15;;;;;;;50.50;48.13;;;;;;;;;;5074640;28;20203;-70
2021/05/21 13:07:42;;;;;;;44.25;42.42;;;;;;;;;;5073587;28;20251;-70
2021/05/21 13:10:12;;;;;;;43.92;42.22;;;;;;;;;;5074584;28;20164;-70
2021/05/21 13:12:42;;;;;;;44.38;42.50;;;;;;;;;;5074511;28;20168;-70
2021/05/21 13:15:11;;;;;;;45.30;43.42;;;;;;;;;;5074525;28;20181;-70
2021/05/21 13:17:38;;;;;;;43.08;40.92;;;;;;;;;;5074423;28;20168;-69
2021/05/21 13:20:06;;;;;;;44.38;42.33;;;;;;;;;;5074417;28;20691;-70
2021/05/21 13:22:32;;;;;;;44.70;42.25;;;;;;;;;;5074477;28;20172;-70
2021/05/21 13:25:01;;;;;;;43.78;42.08;;;;;;;;;;5073020;28;20261;-70
2021/05/21 13:27:29;;;;;;;43.20;41.55;;;;;;;;;;5074464;28;20164;-69
2021/05/21 13:29:56;;;;;;;49.25;47.25;;;;;;;;;;5074216;28;20192;-69
2021/05/21 13:32:22;;;;;;;42.45;40.80;;;;;;;;;;5074213;28;20160;-69
2021/05/21 13:34:48;;;;;;;40.53;38.63;;;;;;;;;;5073964;28;20165;-69
2021/05/21 13:37:14;;;;;;;43.25;41.45;;;;;;;;;;5074214;28;20652;-69
2021/05/21 13:39:40;;;;;;;48.15;46.17;;;;;;;;;;5072679;28;20211;-69
2021/05/21 13:42:07;;;;;;;42.60;40.85;;;;;;;;;;5074071;28;20587;-69
2021/05/21 13:44:33;;;;;;;44.50;42.40;;;;;;;;;;5073749;28;20223;-69
2021/05/21 13:46:59;;;;;;;39.50;37.97;;;;;;;;;;5073922;28;20168;-69
2021/05/21 13:49:26;;;;;;;42.55;40.35;;;;;;;;;;5073998;28;20503;-69
2021/05/21 13:51:53;;;;;;;43.78;41.95;;;;;;;;;;5073873;28;20164;-69
2021/05/21 13:54:19;;;;;;;46.83;44.92;;;;;;;;;;5073826;28;20259;-69
2021/05/21 13:56:45;;;;;;;47.75;45.83;;;;;;;;;;5073795;28;20168;-69
2021/05/21 13:59:11;;;;;;;47.80;45.85;;;;;;;;;;5073789;28;20169;-69
2021/05/21 14:01:37;;;;;;;59.28;56.67;;;;;;;;;;5073781;28;20171;-69
2021/05/21 14:04:03;;;;;;;51.65;49.42;;;;;;;;;;5073667;28;20679;-69
2021/05/21 14:06:29;;;;;;;45.17;43.42;;;;;;;;;;5073745;28;20177;-69
2021/05/21 14:08:55;;;;;;;42.20;40.40;;;;;;;;;;5073661;28;20640;-69
2021/05/21 14:11:21;;;;;;;42.65;40.92;;;;;;;;;;5073660;28;20172;-69
2021/05/21 14:13:47;;;;;;;39.65;38.00;;;;;;;;;;5073570;28;20171;-69
2021/05/21 14:16:14;;;;;;;40.15;38.25;;;;;;;;;;5073595;28;20693;-69
2021/05/21 14:18:40;;;;;;;41.85;40.22;;;;;;;;;;5073303;28;20168;-69
2021/05/21 14:21:06;;;;;;;46.58;44.55;;;;;;;;;;5073500;28;20186;-69
2021/05/21 14:23:32;;;;;;;49.10;47.10;;;;;;;;;;5073401;28;20605;-69
2021/05/21 14:25:58;;;;;;;41.60;39.90;;;;;;;;;;5073481;28;20282;-69
2021/05/21 14:28:25;;;;;;;44.63;42.80;;;;;;;;;;5073281;28;20249;-69
2021/05/21 14:30:51;;;;;;;45.70;43.85;;;;;;;;;;5073641;28;20161;-69
2021/05/21 14:33:19;;;;;;;46.95;44.83;;;;;;;;;;5073390;28;20218;-69
2021/05/21 14:35:45;;;;;;;47.70;45.67;;;;;;;;;;5073341;28;20196;-69
2021/05/21 14:38:11;;;;;;;46.78;44.70;;;;;;;;;;5073243;28;20572;-69
2021/05/21 14:40:37;;;;;;;52.67;50.42;;;;;;;;;;5073329;28;20251;-69
2021/05/21 14:43:03;;;;;;;62.08;59.28;;;;;;;;;;5072915;28;20529;-69
2021/05/21 14:45:29;;;;;;;82.22;78.53;;;;;;;;;;5073302;28;20290;-69
2021/05/21 14:47:55;;;;;;;92.63;88.63;;;;;;;;;;5073272;28;20165;-69
2021/05/21 14:50:22;;;;;;;75.50;72.20;;;;;;;;;;5071941;28;20169;-69
2021/05/21 14:52:48;;;;;;;66.38;63.47;;;;;;;;;;5073234;28;20168;-69
2021/05/21 14:55:14;;;;;;;59.90;57.40;;;;;;;;;;5073153;28;20176;-69
2021/05/21 14:57:41;;;;;;;61.88;59.15;;;;;;;;;;5073122;28;20258;-69
2021/05/21 15:00:08;;;;;;;65.72;62.92;;;;;;;;;;5073078;28;20175;-69
2021/05/21 15:02:39;;;;;;;75.65;72.38;;;;;;;;;;5071982;28;20178;-69
2021/05/21 15:05:07;;;;;;;58.63;56.15;;;;;;;;;;5073032;28;20195;-69
2021/05/21 15:07:35;;;;;;;55.67;53.38;;;;;;;;;;5073050;28;20198;-69
2021/05/21 15:10:02;;;;;;;58.28;55.83;;;;;;;;;;5072930;28;20160;-70
2021/05/21 15:12:30;;;;;;;57.10;54.63;;;;;;;;;;5072951;28;20172;-69
2021/05/21 15:15:01;;;;;;;61.58;58.97;;;;;;;;;;5072951;28;20207;-69
2021/05/21 15:25:36;;;;;;;63.92;61.05;;;;;;;;;;5072874;28;20180;-69
2021/05/21 15:28:02;;;;;;;65.18;62.33;;;;;;;;;;5072828;28;20172;-69
2021/05/21 15:30:43;;;;;;;62.50;59.85;;;;;;;;;;5072629;28;20172;-69
2021/05/21 15:33:09;;;;;;;61.97;59.25;;;;;;;;;;5076588;28;20164;-69
2021/05/21 15:35:35;;;;;;;70.22;67.10;;;;;;;;;;5076472;28;20173;-69
2021/05/21 15:38:01;;;;;;;61.25;58.55;;;;;;;;;;5076463;28;20248;-69
2021/05/21 15:40:27;;;;;;;63.72;60.58;;;;;;;;;;5076341;28;20657;-69
2021/05/21 15:45:38;;;;;;;58.85;56.30;;;;;;;;;;5076356;28;20163;-69
2021/05/21 15:48:04;;;;;;;63.08;60.42;;;;;;;;;;5076272;28;20210;-69
2021/05/21 15:50:39;;;;;;;63.70;61.00;;;;;;;;;;5076195;28;20247;-69
2021/05/21 15:53:25;;;;;;;72.07;68.80;;;;;;;;;;5076259;28;20200;-69
2021/05/21 15:56:11;;;;;;;84.90;81.22;;;;;;;;;;5075987;28;20183;-69
2021/05/21 16:01:09;;;;;;;135.20;129.15;;;;;;;;;;5076090;28;20530;-69
2021/05/21 16:03:35;;;;;;;167.15;159.73;;;;;;;;;;5074829;28;20294;-70
2021/05/21 16:06:01;;;;;;;222.80;212.18;;;;;;;;;;5074932;28;20203;-70
2021/05/21 16:08:27;;;;;;;223.82;213.45;;;;;;;;;;5075803;28;20180;-70
2021/05/21 16:10:54;;;;;;;252.25;237.93;;;;;;;;;;5075779;28;20235;-70
2021/05/21 16:13:21;;;;;;;241.82;230.45;;;;;;;;;;5075326;28;20179;-70
2021/05/21 16:15:47;;;;;;;245.30;233.68;;;;;;;;;;5074424;28;20255;-69
2021/05/21 16:18:14;;;;;;;222.02;211.88;;;;;;;;;;5075688;28;20530;-70
2021/05/21 16:20:41;;;;;;;182.63;174.13;;;;;;;;;;5075621;28;20168;-70
2021/05/21 16:23:07;;;;;;;147.20;140.52;;;;;;;;;;5075497;28;20649;-69
2021/05/21 16:25:32;;;;;;;133.27;127.35;;;;;;;;;;5075627;28;20173;-71
2021/05/21 16:27:58;;;;;;;160.45;153.15;;;;;;;;;;5075539;28;20610;-71
2021/05/21 16:30:24;;;;;;;166.93;159.48;;;;;;;;;;5075484;28;20255;-71
2021/05/21 16:32:51;;;;;;;187.57;179.25;;;;;;;;;;5075425;28;20171;-71
2021/05/21 16:35:17;;;;;;;144.25;137.77;;;;;;;;;;5074244;28;20196;-71
2021/05/21 16:37:43;;;;;;;138.43;132.18;;;;;;;;;;5075345;28;20169;-71
2021/05/21 16:40:10;;;;;;;171.63;163.95;;;;;;;;;;5075323;28;20181;-72
2021/05/21 17:08:23;;;;;;;65.38;62.50;;;;;;;;;;5090937;28;20515;-70
2021/05/21 17:10:52;;;;;;;77.10;73.55;;;;;;;;;;5090829;28;20217;-71
2021/05/21 17:13:18;;;;;;;91.60;87.53;;;;;;;;;;5090661;28;20167;-71
2021/05/21 17:18:53;;;;;;;183.77;175.48;;;;;;;;;;5078347;28;20179;-72
